KPIE/PIE METAR and TAF weather

Enter ICAO airport designator
Station Type Date Time Source
KPIE METAR 2021/02/28 02:53 UTC NOAA

KPIE 280253Z 05004KT 10SM SCT065 23/21 A3020 RMK AO2 SLP227 T02330211 53017


Station Type Date Time Source
KPIE Decoded METAR 2021/02/28 02:53 UTC NOAA

ST PETERSBURG/CLEARWATER, FL, United States (KPIE) 27-55N 82-41W 4M
Feb 27, 2021 - 09:53 PM EST / 2021.02.28 0253 UTC
Wind: from the NE (050 degrees) at 5 MPH (4 KT):0
Visibility: 10 mile(s):0
Sky conditions: partly cloudy
Temperature: 73.9 F (23.3 C)
Dew Point: 70.0 F (21.1 C)
Relative Humidity: 87%
Pressure (altimeter): 30.2 in. Hg (1022 hPa)
Pressure tendency: 0.05 inches (1.7 hPa) higher than three hours ago
ob: KPIE 280253Z 05004KT 10SM SCT065 23/21 A3020 RMK AO2 SLP227 T02330211 53017
cycle: 3

Station Type Date Time Source
KPIE TAF 2021/02/27 18:40 UTC NOAA

TAF KPIE 271738Z 2718/2818 14010KT P6SM FEW040 FEW150
FM272100 21009KT P6SM FEW045 FEW250
FM280400 10004KT P6SM SCT250
FM281300 14007KT P6SM SCT200

Example: see airport list